Time;durP1;ratioP1;P1;durP2;ratioP2;P2;SDS_P1;SDS_P2;PMS_P1;PMS_P2;Temp;Humidity;BMP_temperature;BMP_pressure;BME280_temperature;BME280_humidity;BME280_pressure;Samples;Min_cycle;Max_cycle;Signal;HPM_P1;HPM_P2
2023/02/15 00:01:15;;;;;;;26.90;15.40;;;;;;;;;;4990886;28;20412;-42
2023/02/15 00:03:41;;;;;;;27.00;14.87;;;;;;;;;;4990896;28;20409;-42
2023/02/15 00:06:07;;;;;;;25.13;15.30;;;;;;;;;;4991583;28;20455;-44
2023/02/15 00:08:33;;;;;;;26.07;13.83;;;;;;;;;;4991222;28;20398;-42
2023/02/15 00:11:09;;;;;;;26.93;14.47;;;;;;;;;;4991385;28;20524;-42
2023/02/15 00:13:35;;;;;;;24.60;15.10;;;;;;;;;;4985768;28;20926;-44
2023/02/15 00:16:02;;;;;;;27.47;13.70;;;;;;;;;;4991503;28;20432;-42
2023/02/15 00:18:28;;;;;;;25.83;15.10;;;;;;;;;;4993979;28;20413;-42
2023/02/15 00:20:54;;;;;;;28.07;15.10;;;;;;;;;;4994953;28;20500;-41
2023/02/15 00:23:20;;;;;;;24.97;15.00;;;;;;;;;;4994001;28;20897;-42
2023/02/15 00:25:46;;;;;;;26.33;14.37;;;;;;;;;;4994919;28;20972;-42
2023/02/15 00:28:12;;;;;;;26.90;14.80;;;;;;;;;;4994681;28;20496;-42
2023/02/15 00:30:38;;;;;;;29.83;15.50;;;;;;;;;;4994687;28;20522;-43
2023/02/15 00:33:04;;;;;;;27.63;15.00;;;;;;;;;;4996682;28;20432;-43
2023/02/15 00:35:30;;;;;;;25.60;14.77;;;;;;;;;;4994937;28;20412;-46
2023/02/15 00:37:56;;;;;;;26.55;14.90;;;;;;;;;;4994912;28;20415;-48
2023/02/15 00:40:22;;;;;;;30.85;15.68;;;;;;;;;;4995037;28;20542;-45
2023/02/15 00:42:48;;;;;;;24.63;15.43;;;;;;;;;;4994110;28;20243;-45
2023/02/15 00:45:14;;;;;;;23.90;14.32;;;;;;;;;;4994732;28;20412;-48
2023/02/15 00:47:40;;;;;;;25.70;15.50;;;;;;;;;;4994572;28;20180;-48
2023/02/15 00:50:06;;;;;;;24.43;14.40;;;;;;;;;;4994431;28;20505;-47
2023/02/15 00:52:32;;;;;;;24.50;13.77;;;;;;;;;;4993905;28;20971;-46
2023/02/15 00:54:58;;;;;;;24.80;15.03;;;;;;;;;;4994533;28;20420;-46
2023/02/15 00:57:24;;;;;;;29.37;15.13;;;;;;;;;;4994557;28;20525;-47
2023/02/15 00:59:51;;;;;;;26.87;15.50;;;;;;;;;;4994004;28;20430;-48
2023/02/15 01:02:16;;;;;;;28.90;15.20;;;;;;;;;;4994129;28;20413;-48
2023/02/15 01:04:42;;;;;;;23.13;13.57;;;;;;;;;;4994250;28;20216;-45
2023/02/15 01:07:08;;;;;;;27.70;15.13;;;;;;;;;;4994597;28;20515;-47
2023/02/15 01:09:34;;;;;;;25.63;15.40;;;;;;;;;;4994239;28;20300;-48
2023/02/15 01:12:00;;;;;;;25.70;14.87;;;;;;;;;;4994129;28;20418;-47
2023/02/15 01:14:26;;;;;;;30.30;15.50;;;;;;;;;;4993643;28;20463;-47
2023/02/15 01:16:52;;;;;;;28.80;16.43;;;;;;;;;;4994050;28;20424;-47
2023/02/15 01:19:18;;;;;;;26.40;15.43;;;;;;;;;;4993883;28;20440;-47
2023/02/15 01:21:44;;;;;;;36.13;18.33;;;;;;;;;;4993936;28;20413;-46
2023/02/15 01:24:13;;;;;;;27.33;15.97;;;;;;;;;;4993419;28;20408;-47
2023/02/15 01:26:39;;;;;;;28.40;16.40;;;;;;;;;;4994014;28;20408;-48
2023/02/15 01:29:05;;;;;;;28.25;15.32;;;;;;;;;;4992571;28;20212;-47
2023/02/15 01:31:31;;;;;;;28.97;16.53;;;;;;;;;;4993772;28;20185;-47
2023/02/15 01:33:57;;;;;;;33.45;16.33;;;;;;;;;;4996185;28;20408;-45
2023/02/15 01:36:23;;;;;;;34.53;16.80;;;;;;;;;;4993695;28;20615;-47
2023/02/15 01:38:49;;;;;;;28.50;15.47;;;;;;;;;;4993506;28;20424;-48
2023/02/15 01:41:26;;;;;;;27.33;15.50;;;;;;;;;;4993681;28;20448;-45
2023/02/15 01:43:59;;;;;;;28.10;15.55;;;;;;;;;;4992963;28;20410;-46
2023/02/15 01:46:28;;;;;;;39.92;17.63;;;;;;;;;;4993378;28;20695;-48
2023/02/15 01:48:59;;;;;;;26.88;15.30;;;;;;;;;;4993229;28;20239;-46
2023/02/15 01:51:27;;;;;;;31.48;17.70;;;;;;;;;;4993679;28;20543;-47
2023/02/15 01:54:06;;;;;;;26.33;15.35;;;;;;;;;;4992800;28;20183;-48
2023/02/15 01:56:34;;;;;;;30.97;16.97;;;;;;;;;;4993414;28;20656;-46
2023/02/15 01:59:03;;;;;;;28.50;15.93;;;;;;;;;;4992966;28;20436;-48
2023/02/15 02:01:29;;;;;;;28.77;15.80;;;;;;;;;;4992505;28;20185;-42
2023/02/15 02:03:55;;;;;;;25.58;15.15;;;;;;;;;;4992357;28;20420;-46
2023/02/15 02:06:22;;;;;;;28.03;16.70;;;;;;;;;;4992945;28;20185;-45
2023/02/15 02:08:48;;;;;;;31.27;17.75;;;;;;;;;;4992708;28;20424;-44
2023/02/15 02:11:15;;;;;;;30.80;17.38;;;;;;;;;;4985323;28;20582;-47
2023/02/15 02:13:42;;;;;;;28.70;16.20;;;;;;;;;;4992242;28;20173;-46
2023/02/15 02:16:19;;;;;;;34.88;17.85;;;;;;;;;;4992985;28;20181;-45
2023/02/15 02:18:54;;;;;;;33.00;17.70;;;;;;;;;;4992862;28;20292;-47
2023/02/15 02:21:32;;;;;;;32.83;16.60;;;;;;;;;;4985877;28;20260;-46
2023/02/15 02:23:58;;;;;;;28.40;17.52;;;;;;;;;;4992142;28;20711;-47
2023/02/15 02:26:33;;;;;;;27.83;15.00;;;;;;;;;;4992845;28;20181;-45
2023/02/15 02:29:05;;;;;;;29.23;16.10;;;;;;;;;;4991339;28;20450;-45
2023/02/15 02:31:56;;;;;;;28.65;16.13;;;;;;;;;;4992664;28;20212;-47
2023/02/15 02:34:25;;;;;;;27.70;15.75;;;;;;;;;;4991664;28;20196;-47
2023/02/15 02:36:51;;;;;;;30.92;18.60;;;;;;;;;;4992252;28;20214;-45
2023/02/15 02:39:36;;;;;;;30.47;16.50;;;;;;;;;;5000706;28;20604;-48
2023/02/15 02:42:13;;;;;;;31.15;16.05;;;;;;;;;;4991063;28;20414;-45
2023/02/15 02:44:43;;;;;;;32.33;17.67;;;;;;;;;;4991830;28;20177;-46
2023/02/15 02:47:30;;;;;;;32.47;17.58;;;;;;;;;;4991565;28;20676;-47
2023/02/15 02:50:00;;;;;;;27.55;16.25;;;;;;;;;;4992193;28;20207;-46
2023/02/15 02:52:36;;;;;;;33.88;16.98;;;;;;;;;;4992193;28;20175;-45
2023/02/15 02:55:03;;;;;;;28.95;16.42;;;;;;;;;;4992487;28;20173;-47
2023/02/15 02:57:30;;;;;;;22.27;14.27;;;;;;;;;;4992496;28;20192;-46
2023/02/15 02:59:58;;;;;;;29.55;17.40;;;;;;;;;;4992089;28;20571;-47
2023/02/15 03:02:28;;;;;;;31.08;17.75;;;;;;;;;;4991394;28;20188;-45
2023/02/15 03:04:58;;;;;;;32.00;17.30;;;;;;;;;;4991875;28;20538;-47
2023/02/15 03:07:25;;;;;;;36.63;18.42;;;;;;;;;;4992538;28;20537;-45
2023/02/15 03:09:55;;;;;;;24.60;15.90;;;;;;;;;;4992093;28;20283;-47
2023/02/15 03:12:23;;;;;;;24.70;15.60;;;;;;;;;;4992295;28;20185;-47
2023/02/15 03:14:50;;;;;;;27.98;17.23;;;;;;;;;;4991991;28;20169;-45
2023/02/15 03:17:17;;;;;;;36.88;20.02;;;;;;;;;;4992460;28;20212;-47
2023/02/15 03:19:44;;;;;;;31.23;17.17;;;;;;;;;;4992032;28;20204;-45
2023/02/15 03:22:16;;;;;;;30.58;18.00;;;;;;;;;;4992193;28;20191;-46
2023/02/15 03:24:49;;;;;;;33.80;17.80;;;;;;;;;;4991579;28;20216;-46
2023/02/15 03:27:17;;;;;;;34.65;17.02;;;;;;;;;;4984358;28;20184;-46
2023/02/15 03:29:44;;;;;;;30.88;16.90;;;;;;;;;;4991882;28;20681;-45
2023/02/15 03:32:11;;;;;;;32.25;18.08;;;;;;;;;;4991992;28;20660;-47
2023/02/15 03:34:37;;;;;;;31.80;19.48;;;;;;;;;;4991487;28;20275;-46
2023/02/15 03:37:11;;;;;;;34.13;16.90;;;;;;;;;;4991973;28;20185;-46
2023/02/15 03:42:56;;;;;;;34.58;18.35;;;;;;;;;;4986533;28;20188;-48
2023/02/15 03:45:25;;;;;;;30.90;16.83;;;;;;;;;;4992060;28;20181;-46
2023/02/15 03:47:53;;;;;;;40.47;18.38;;;;;;;;;;4986618;28;20196;-46
2023/02/15 03:53:09;;;;;;;33.45;19.77;;;;;;;;;;5002250;28;20200;-48
2023/02/15 03:55:36;;;;;;;34.95;19.23;;;;;;;;;;4995728;28;20188;-46
2023/02/15 04:03:44;;;;;;;30.45;17.35;;;;;;;;;;4989943;28;20672;-47
2023/02/15 04:06:10;;;;;;;36.63;19.73;;;;;;;;;;4994992;28;20184;-45
2023/02/15 04:11:20;;;;;;;31.77;17.77;;;;;;;;;;4992781;28;20407;-47
2023/02/15 04:13:46;;;;;;;32.80;18.20;;;;;;;;;;4995017;28;20169;-45
2023/02/15 04:16:12;;;;;;;28.77;17.00;;;;;;;;;;4995256;28;20408;-47
2023/02/15 04:26:58;;;;;;;37.78;19.48;;;;;;;;;;4995052;28;20215;-46
2023/02/15 04:29:25;;;;;;;38.65;19.27;;;;;;;;;;4994604;28;20588;-46
2023/02/15 04:31:51;;;;;;;31.90;16.27;;;;;;;;;;4994310;28;20648;-47
2023/02/15 04:34:17;;;;;;;35.30;16.60;;;;;;;;;;4994315;28;20236;-47
2023/02/15 04:36:43;;;;;;;35.72;18.25;;;;;;;;;;4994960;28;20210;-47
2023/02/15 04:39:09;;;;;;;33.80;17.60;;;;;;;;;;4994668;28;20197;-46
2023/02/15 04:41:35;;;;;;;40.08;19.60;;;;;;;;;;4994807;28;20495;-45
2023/02/15 04:44:01;;;;;;;34.58;17.95;;;;;;;;;;4994150;28;20177;-46
2023/02/15 04:46:28;;;;;;;35.20;17.83;;;;;;;;;;5000843;28;20180;-47
2023/02/15 04:48:54;;;;;;;35.55;18.23;;;;;;;;;;4994331;28;20571;-47
2023/02/15 04:51:20;;;;;;;39.25;19.30;;;;;;;;;;4994669;28;20173;-46
2023/02/15 04:53:46;;;;;;;32.28;18.45;;;;;;;;;;4994150;28;20165;-46
2023/02/15 04:56:12;;;;;;;36.07;18.63;;;;;;;;;;4994519;28;20173;-47
2023/02/15 04:58:40;;;;;;;34.73;19.90;;;;;;;;;;4994333;28;20416;-45
2023/02/15 05:01:07;;;;;;;38.67;18.40;;;;;;;;;;4994403;28;20923;-45
2023/02/15 05:03:32;;;;;;;35.58;18.63;;;;;;;;;;4993616;28;20292;-46
2023/02/15 05:05:58;;;;;;;30.60;18.10;;;;;;;;;;4994269;28;20684;-47
2023/02/15 05:08:24;;;;;;;32.90;18.47;;;;;;;;;;4994214;28;20507;-45
2023/02/15 05:10:51;;;;;;;33.17;18.92;;;;;;;;;;4994082;28;20871;-45
2023/02/15 05:13:17;;;;;;;35.30;18.60;;;;;;;;;;4993497;28;20280;-45
2023/02/15 05:15:47;;;;;;;31.35;17.27;;;;;;;;;;4994168;28;20541;-46
2023/02/15 05:18:13;;;;;;;33.75;17.20;;;;;;;;;;4988815;28;20546;-44
2023/02/15 05:20:39;;;;;;;38.90;19.55;;;;;;;;;;4993970;28;20228;-45
2023/02/15 05:23:05;;;;;;;33.80;19.37;;;;;;;;;;4993312;28;20238;-45
2023/02/15 05:28:22;;;;;;;32.35;18.45;;;;;;;;;;4986383;28;20474;-44
2023/02/15 05:30:48;;;;;;;32.97;18.02;;;;;;;;;;4994037;28;20539;-45
2023/02/15 05:33:14;;;;;;;32.08;17.75;;;;;;;;;;4985326;28;20602;-45
2023/02/15 05:35:40;;;;;;;31.42;17.60;;;;;;;;;;4993813;28;20181;-45
2023/02/15 05:38:06;;;;;;;38.43;18.33;;;;;;;;;;4993612;28;20224;-45
2023/02/15 05:40:32;;;;;;;36.37;18.87;;;;;;;;;;4993505;28;20947;-47
2023/02/15 05:42:58;;;;;;;41.13;19.30;;;;;;;;;;4992968;28;20773;-45
2023/02/15 05:45:25;;;;;;;38.73;19.27;;;;;;;;;;4993596;28;20899;-46
2023/02/15 05:47:51;;;;;;;37.00;19.80;;;;;;;;;;4993457;28;20896;-47
2023/02/15 05:50:17;;;;;;;33.13;18.77;;;;;;;;;;4993277;28;20207;-47
2023/02/15 05:52:43;;;;;;;44.67;20.08;;;;;;;;;;4993307;28;20173;-44
2023/02/15 05:55:09;;;;;;;42.53;19.80;;;;;;;;;;4992805;28;20515;-47
2023/02/15 05:57:35;;;;;;;32.42;17.35;;;;;;;;;;4991965;28;20414;-46
2023/02/15 06:00:04;;;;;;;35.75;17.60;;;;;;;;;;4993153;28;20546;-45
2023/02/15 06:02:30;;;;;;;35.33;19.75;;;;;;;;;;4991736;28;20184;-46
2023/02/15 06:04:56;;;;;;;38.28;19.00;;;;;;;;;;4992575;28;20189;-46
2023/02/15 06:07:22;;;;;;;37.10;18.90;;;;;;;;;;4993197;28;20176;-45
2023/02/15 06:09:48;;;;;;;35.70;17.93;;;;;;;;;;4992781;28;20459;-45
2023/02/15 06:12:13;;;;;;;31.63;17.90;;;;;;;;;;4993437;28;20400;-46
2023/02/15 06:14:39;;;;;;;36.10;20.23;;;;;;;;;;4991933;28;20408;-46
2023/02/15 06:17:06;;;;;;;37.37;15.77;;;;;;;;;;4992970;28;20891;-45
2023/02/15 06:19:32;;;;;;;37.63;18.10;;;;;;;;;;4992826;28;20428;-45
2023/02/15 06:21:58;;;;;;;39.60;18.67;;;;;;;;;;4992954;28;20633;-45
2023/02/15 06:24:24;;;;;;;34.20;18.53;;;;;;;;;;4992244;28;20412;-47
2023/02/15 06:26:49;;;;;;;32.00;17.63;;;;;;;;;;4992810;28;20412;-47
2023/02/15 06:29:15;;;;;;;33.33;18.50;;;;;;;;;;4992689;28;20455;-47
2023/02/15 06:31:41;;;;;;;30.58;17.25;;;;;;;;;;4992723;28;20891;-47
2023/02/15 06:34:07;;;;;;;36.50;17.90;;;;;;;;;;4992082;28;20285;-47
2023/02/15 06:36:33;;;;;;;38.33;18.27;;;;;;;;;;4992765;28;20784;-45
2023/02/15 06:38:59;;;;;;;37.33;16.57;;;;;;;;;;4992868;28;20519;-41
2023/02/15 06:41:25;;;;;;;34.53;18.25;;;;;;;;;;4992594;28;20475;-43
2023/02/15 06:43:51;;;;;;;33.13;16.83;;;;;;;;;;4992332;28;20185;-44
2023/02/15 06:46:17;;;;;;;28.63;16.93;;;;;;;;;;4992522;28;20408;-41
2023/02/15 06:48:43;;;;;;;30.60;16.83;;;;;;;;;;4992408;28;20412;-41
2023/02/15 06:51:09;;;;;;;35.13;18.53;;;;;;;;;;4992393;28;20467;-41
2023/02/15 06:53:35;;;;;;;33.83;16.98;;;;;;;;;;4991758;28;20907;-41
2023/02/15 06:56:06;;;;;;;35.15;17.95;;;;;;;;;;4992425;28;20180;-41
2023/02/15 06:58:36;;;;;;;32.50;15.98;;;;;;;;;;4991697;28;20177;-41
2023/02/15 07:01:02;;;;;;;31.60;15.80;;;;;;;;;;4991746;28;20184;-41
2023/02/15 07:03:28;;;;;;;39.73;18.50;;;;;;;;;;4989681;28;20181;-42
2023/02/15 07:05:57;;;;;;;30.77;17.60;;;;;;;;;;4991971;28;20407;-41
2023/02/15 07:08:24;;;;;;;33.72;17.45;;;;;;;;;;4991508;28;20499;-43
2023/02/15 07:10:50;;;;;;;28.33;16.95;;;;;;;;;;4991606;28;20204;-41
2023/02/15 07:13:16;;;;;;;34.40;17.92;;;;;;;;;;4991057;28;20200;-41
2023/02/15 07:15:42;;;;;;;33.93;18.63;;;;;;;;;;4991807;28;20219;-41
2023/02/15 07:18:09;;;;;;;30.43;15.90;;;;;;;;;;4991290;28;20416;-41
2023/02/15 07:20:35;;;;;;;35.15;17.40;;;;;;;;;;4988634;28;20922;-42
2023/02/15 07:23:01;;;;;;;34.47;18.50;;;;;;;;;;4997689;28;20584;-41
2023/02/15 07:25:27;;;;;;;28.92;16.38;;;;;;;;;;4991668;28;20267;-41
2023/02/15 07:28:00;;;;;;;33.25;17.13;;;;;;;;;;4993777;28;20184;-41
2023/02/15 07:30:26;;;;;;;34.47;17.40;;;;;;;;;;4995812;28;20208;-43
2023/02/15 07:35:47;;;;;;;31.42;16.27;;;;;;;;;;4996349;28;20239;-47
2023/02/15 07:38:13;;;;;;;30.10;15.57;;;;;;;;;;4994855;28;20327;-45
2023/02/15 07:40:39;;;;;;;33.10;16.47;;;;;;;;;;4995787;28;20700;-48
2023/02/15 07:43:05;;;;;;;34.27;17.87;;;;;;;;;;4995029;28;20784;-45
2023/02/15 07:45:31;;;;;;;35.77;17.57;;;;;;;;;;4995878;28;20481;-46
2023/02/15 07:47:57;;;;;;;34.57;17.70;;;;;;;;;;4995617;28;20574;-46
2023/02/15 07:50:23;;;;;;;27.75;16.48;;;;;;;;;;4995761;28;20447;-46
2023/02/15 07:52:49;;;;;;;29.83;17.10;;;;;;;;;;4995420;28;20177;-45
2023/02/15 07:55:15;;;;;;;35.53;17.47;;;;;;;;;;4995011;28;20404;-44
2023/02/15 07:57:44;;;;;;;37.00;16.57;;;;;;;;;;4995384;28;20802;-45
2023/02/15 08:00:11;;;;;;;35.27;17.83;;;;;;;;;;4994318;28;20499;-47
2023/02/15 08:02:38;;;;;;;30.30;16.40;;;;;;;;;;4994346;28;20888;-47
2023/02/15 08:05:04;;;;;;;26.03;14.60;;;;;;;;;;4994039;28;20422;-47
2023/02/15 08:07:30;;;;;;;28.60;15.27;;;;;;;;;;4995181;28;20962;-47
2023/02/15 08:09:56;;;;;;;28.00;14.57;;;;;;;;;;4994928;28;20552;-45
2023/02/15 08:12:22;;;;;;;31.13;16.17;;;;;;;;;;4993166;28;20432;-46
2023/02/15 08:14:48;;;;;;;30.43;16.67;;;;;;;;;;4993237;28;20412;-44
2023/02/15 08:17:14;;;;;;;27.77;15.10;;;;;;;;;;4995058;28;20419;-45
2023/02/15 08:19:40;;;;;;;29.70;15.10;;;;;;;;;;4995005;28;20489;-46
2023/02/15 08:22:07;;;;;;;29.33;16.80;;;;;;;;;;4994953;28;20418;-44
2023/02/15 08:24:34;;;;;;;29.20;15.30;;;;;;;;;;4994947;28;20422;-45
2023/02/15 08:27:02;;;;;;;27.17;14.80;;;;;;;;;;4994629;28;20419;-46
2023/02/15 08:29:28;;;;;;;27.53;16.40;;;;;;;;;;4994824;28;20521;-46
2023/02/15 08:31:58;;;;;;;26.40;14.60;;;;;;;;;;4994878;28;20847;-46
2023/02/15 08:34:24;;;;;;;27.43;15.73;;;;;;;;;;4994164;28;20445;-45
2023/02/15 08:36:50;;;;;;;27.00;13.83;;;;;;;;;;4994755;28;20446;-45
2023/02/15 08:39:16;;;;;;;24.40;13.77;;;;;;;;;;4993826;28;20780;-48
2023/02/15 08:41:43;;;;;;;28.10;15.10;;;;;;;;;;4994226;28;20638;-45
2023/02/15 08:44:10;;;;;;;25.10;15.47;;;;;;;;;;4994135;28;20697;-47
2023/02/15 08:46:38;;;;;;;21.33;13.47;;;;;;;;;;4994624;28;20397;-46
2023/02/15 08:49:04;;;;;;;22.67;15.30;;;;;;;;;;4994423;28;20531;-47
2023/02/15 08:51:32;;;;;;;25.80;14.37;;;;;;;;;;4994264;28;20433;-45
2023/02/15 08:53:59;;;;;;;22.53;14.13;;;;;;;;;;4993472;28;20431;-49
2023/02/15 08:56:26;;;;;;;36.27;14.37;;;;;;;;;;4997096;28;20779;-46
2023/02/15 08:58:53;;;;;;;22.60;13.70;;;;;;;;;;4994319;28;20469;-48
2023/02/15 09:01:21;;;;;;;28.53;14.53;;;;;;;;;;4994123;28;20411;-48
2023/02/15 09:03:48;;;;;;;28.93;14.50;;;;;;;;;;4993617;28;20504;-48
2023/02/15 09:06:14;;;;;;;25.60;13.20;;;;;;;;;;4994292;28;20434;-47
2023/02/15 09:08:40;;;;;;;23.73;14.43;;;;;;;;;;4994067;28;20413;-48
2023/02/15 09:11:10;;;;;;;20.33;12.07;;;;;;;;;;4993858;28;20535;-48
2023/02/15 09:13:37;;;;;;;22.03;14.10;;;;;;;;;;4993335;28;20462;-49
2023/02/15 09:16:04;;;;;;;24.00;14.07;;;;;;;;;;4992802;28;20423;-48
2023/02/15 09:18:31;;;;;;;20.73;13.50;;;;;;;;;;4992019;28;20416;-48
2023/02/15 09:20:57;;;;;;;20.97;13.23;;;;;;;;;;4993697;28;20416;-47
2023/02/15 09:23:23;;;;;;;28.07;12.97;;;;;;;;;;4993340;28;20466;-47
2023/02/15 09:25:49;;;;;;;19.03;13.00;;;;;;;;;;4993903;28;20783;-48
2023/02/15 09:28:15;;;;;;;26.60;13.93;;;;;;;;;;4993903;28;20452;-45
2023/02/15 09:30:41;;;;;;;20.13;12.10;;;;;;;;;;4992634;28;20480;-48
2023/02/15 09:33:07;;;;;;;21.17;13.80;;;;;;;;;;4993204;28;20452;-48
2023/02/15 09:35:33;;;;;;;23.40;13.80;;;;;;;;;;4993494;28;20509;-49
2023/02/15 09:37:59;;;;;;;23.37;13.80;;;;;;;;;;4993739;28;20897;-49
2023/02/15 09:40:25;;;;;;;20.20;14.40;;;;;;;;;;4993778;28;20446;-48
2023/02/15 09:43:00;;;;;;;18.67;12.13;;;;;;;;;;4995315;28;20483;-44
2023/02/15 09:45:29;;;;;;;19.87;12.53;;;;;;;;;;5001584;28;20415;-44
2023/02/15 09:47:57;;;;;;;20.10;13.00;;;;;;;;;;4994960;28;20415;-49
2023/02/15 09:50:43;;;;;;;20.40;13.40;;;;;;;;;;4993593;28;20474;-45
2023/02/15 09:53:15;;;;;;;16.20;12.00;;;;;;;;;;4992852;28;20420;-44
2023/02/15 09:55:48;;;;;;;19.10;12.23;;;;;;;;;;4996831;28;20420;-43
2023/02/15 09:58:20;;;;;;;20.00;13.13;;;;;;;;;;4988867;28;20429;-43
2023/02/15 10:00:49;;;;;;;17.83;12.20;;;;;;;;;;4994548;28;20524;-43
2023/02/15 10:03:15;;;;;;;22.50;13.27;;;;;;;;;;4993131;28;20494;-45
2023/02/15 10:05:48;;;;;;;20.77;12.70;;;;;;;;;;4993861;28;20411;-45
2023/02/15 10:08:23;;;;;;;16.53;12.60;;;;;;;;;;4997039;28;20511;-45
2023/02/15 10:10:54;;;;;;;18.77;12.70;;;;;;;;;;4987856;28;20469;-47
2023/02/15 10:13:33;;;;;;;15.83;12.13;;;;;;;;;;4990954;28;20411;-45
2023/02/15 10:16:08;;;;;;;16.07;12.07;;;;;;;;;;4990976;28;20455;-46
2023/02/15 10:18:34;;;;;;;17.73;12.70;;;;;;;;;;4993768;28;20497;-46
2023/02/15 10:21:18;;;;;;;17.83;11.90;;;;;;;;;;4994694;28;20420;-50
2023/02/15 10:23:48;;;;;;;19.20;12.20;;;;;;;;;;4994642;28;20181;-48
2023/02/15 10:26:27;;;;;;;17.70;11.30;;;;;;;;;;4991840;28;20426;-45
2023/02/15 10:28:59;;;;;;;17.73;11.03;;;;;;;;;;4991128;28;20432;-43
2023/02/15 10:31:27;;;;;;;16.67;11.00;;;;;;;;;;4992400;28;21109;-45
2023/02/15 10:34:15;;;;;;;13.20;9.90;;;;;;;;;;4992200;28;20420;-45
2023/02/15 10:36:50;;;;;;;15.93;11.33;;;;;;;;;;4992580;28;20423;-45
2023/02/15 10:39:25;;;;;;;19.23;10.70;;;;;;;;;;4983740;28;20473;-45
2023/02/15 10:42:10;;;;;;;16.80;11.53;;;;;;;;;;4992724;28;20412;-45
2023/02/15 10:45:01;;;;;;;14.00;10.30;;;;;;;;;;4992208;28;20931;-45
2023/02/15 10:47:45;;;;;;;16.67;9.83;;;;;;;;;;4985648;28;20408;-45
2023/02/15 10:50:20;;;;;;;12.80;9.13;;;;;;;;;;4992399;28;20819;-45
2023/02/15 10:52:51;;;;;;;15.97;10.70;;;;;;;;;;4992606;28;20772;-43
2023/02/15 10:55:35;;;;;;;15.63;10.10;;;;;;;;;;4984355;28;20523;-43
2023/02/15 10:58:20;;;;;;;12.70;9.83;;;;;;;;;;4991040;28;20463;-43
2023/02/15 11:00:49;;;;;;;12.27;9.23;;;;;;;;;;4988738;28;20424;-45
2023/02/15 11:03:25;;;;;;;12.83;9.10;;;;;;;;;;4990414;28;20491;-44
2023/02/15 11:06:10;;;;;;;11.60;8.47;;;;;;;;;;4990885;28;20930;-46
2023/02/15 11:08:37;;;;;;;12.37;8.53;;;;;;;;;;4992356;28;20786;-45
2023/02/15 11:11:08;;;;;;;10.70;8.60;;;;;;;;;;4990699;28;20463;-45
2023/02/15 11:13:40;;;;;;;12.47;8.37;;;;;;;;;;4991977;28;20460;-45
2023/02/15 11:16:14;;;;;;;10.20;7.70;;;;;;;;;;4992449;28;20483;-45
2023/02/15 11:18:43;;;;;;;13.33;9.03;;;;;;;;;;4990585;28;20442;-43
2023/02/15 11:21:21;;;;;;;11.40;8.37;;;;;;;;;;4991163;28;20450;-45
2023/02/15 11:23:48;;;;;;;12.50;9.00;;;;;;;;;;4991972;28;20422;-43
2023/02/15 11:26:34;;;;;;;16.17;9.23;;;;;;;;;;4990651;28;20439;-45
2023/02/15 11:29:19;;;;;;;12.60;8.03;;;;;;;;;;4992172;28;20428;-44
2023/02/15 11:31:46;;;;;;;10.90;8.13;;;;;;;;;;4991982;28;20432;-48
2023/02/15 11:34:31;;;;;;;11.30;8.10;;;;;;;;;;4991494;28;20424;-47
2023/02/15 11:37:00;;;;;;;14.97;10.13;;;;;;;;;;4999921;28;20417;-49
2023/02/15 11:39:28;;;;;;;11.43;8.17;;;;;;;;;;4995472;28;20467;-45
2023/02/15 11:41:57;;;;;;;12.83;7.97;;;;;;;;;;4992026;28;20455;-45
2023/02/15 11:44:35;;;;;;;10.97;7.60;;;;;;;;;;4984594;28;20419;-45
2023/02/15 11:47:02;;;;;;;10.63;7.13;;;;;;;;;;4988182;28;20470;-44
2023/02/15 11:49:32;;;;;;;10.13;8.40;;;;;;;;;;4991336;28;20440;-47
2023/02/15 11:51:58;;;;;;;11.00;7.50;;;;;;;;;;4990302;28;20424;-47
2023/02/15 11:54:28;;;;;;;12.03;7.20;;;;;;;;;;4991428;28;20463;-47
2023/02/15 11:56:55;;;;;;;10.47;8.00;;;;;;;;;;5009569;28;21117;-46
2023/02/15 11:59:33;;;;;;;11.00;7.47;;;;;;;;;;4992500;28;20436;-48
2023/02/15 12:01:59;;;;;;;10.03;7.60;;;;;;;;;;4991723;28;20419;-49
2023/02/15 12:04:25;;;;;;;13.00;7.40;;;;;;;;;;4990995;28;20822;-43
2023/02/15 12:06:57;;;;;;;11.63;7.97;;;;;;;;;;4991382;28;20458;-42
2023/02/15 12:09:41;;;;;;;9.63;7.80;;;;;;;;;;4991653;28;20827;-43
2023/02/15 12:12:25;;;;;;;10.30;8.07;;;;;;;;;;4991476;28;20503;-45
2023/02/15 12:14:53;;;;;;;13.37;8.40;;;;;;;;;;4994353;28;20902;-45
2023/02/15 12:17:21;;;;;;;9.63;6.60;;;;;;;;;;4995044;28;20754;-48
2023/02/15 12:19:50;;;;;;;11.90;7.97;;;;;;;;;;4995198;28;20435;-43
2023/02/15 12:22:24;;;;;;;10.60;7.20;;;;;;;;;;4994989;28;20824;-45
2023/02/15 12:24:51;;;;;;;13.27;8.10;;;;;;;;;;4994703;28;20400;-46
2023/02/15 12:27:18;;;;;;;11.83;7.70;;;;;;;;;;4994718;28;20423;-47
2023/02/15 12:29:50;;;;;;;12.40;8.20;;;;;;;;;;4994849;28;20471;-44
2023/02/15 12:32:24;;;;;;;15.73;8.47;;;;;;;;;;4994816;28;20428;-43
2023/02/15 12:34:51;;;;;;;9.27;7.50;;;;;;;;;;4994626;28;20412;-42
2023/02/15 12:37:18;;;;;;;11.13;8.20;;;;;;;;;;4994970;28;20428;-43
2023/02/15 12:39:52;;;;;;;10.33;7.70;;;;;;;;;;4995401;28;20781;-44
2023/02/15 12:42:19;;;;;;;10.83;8.93;;;;;;;;;;4994922;28;20412;-42
2023/02/15 12:44:57;;;;;;;11.87;8.67;;;;;;;;;;4994574;28;20403;-43
2023/02/15 12:47:26;;;;;;;12.40;8.20;;;;;;;;;;4994709;28;20555;-43
2023/02/15 12:50:09;;;;;;;15.77;9.17;;;;;;;;;;4994695;28;20499;-42
2023/02/15 12:52:35;;;;;;;12.03;7.73;;;;;;;;;;4994554;28;20450;-43
2023/02/15 12:55:11;;;;;;;8.77;7.60;;;;;;;;;;4998760;28;20415;-42
2023/02/15 12:57:37;;;;;;;14.57;7.60;;;;;;;;;;5000172;28;20463;-45
2023/02/15 13:00:05;;;;;;;11.53;8.47;;;;;;;;;;4994493;28;20443;-45
2023/02/15 13:02:36;;;;;;;10.90;7.63;;;;;;;;;;4993291;28;20428;-43
2023/02/15 13:05:27;;;;;;;10.23;8.07;;;;;;;;;;4992923;28;20518;-43
2023/02/15 13:08:14;;;;;;;11.13;7.83;;;;;;;;;;4989961;28;20431;-42
2023/02/15 13:11:00;;;;;;;13.70;7.00;;;;;;;;;;4994462;28;20493;-42
2023/02/15 13:13:28;;;;;;;10.43;7.10;;;;;;;;;;4990341;28;20819;-42
2023/02/15 13:15:56;;;;;;;12.47;7.10;;;;;;;;;;4993883;28;20424;-43
2023/02/15 13:18:33;;;;;;;10.40;7.73;;;;;;;;;;4992606;28;20915;-43
2023/02/15 13:21:05;;;;;;;12.60;7.40;;;;;;;;;;4994363;28;20503;-42
2023/02/15 13:23:31;;;;;;;9.93;7.67;;;;;;;;;;4994127;28;20440;-43
2023/02/15 13:25:59;;;;;;;12.17;7.40;;;;;;;;;;4993775;28;20423;-44
2023/02/15 13:28:30;;;;;;;10.73;7.37;;;;;;;;;;4993990;28;20426;-44
2023/02/15 13:30:56;;;;;;;12.87;8.30;;;;;;;;;;4982004;28;20472;-44
2023/02/15 13:33:28;;;;;;;9.80;6.83;;;;;;;;;;4974539;28;20857;-47
2023/02/15 13:36:03;;;;;;;10.40;8.20;;;;;;;;;;4974165;28;21004;-44
2023/02/15 13:38:45;;;;;;;11.17;7.63;;;;;;;;;;4974244;28;20914;-45
2023/02/15 13:41:38;;;;;;;11.27;7.87;;;;;;;;;;4974342;28;20483;-42
2023/02/15 13:44:22;;;;;;;14.27;8.40;;;;;;;;;;4975681;28;20459;-49
2023/02/15 13:46:51;;;;;;;13.50;6.83;;;;;;;;;;4993644;28;20412;-45
2023/02/15 13:49:29;;;;;;;12.50;7.00;;;;;;;;;;4977978;28;21006;-42
2023/02/15 13:52:04;;;;;;;12.67;7.57;;;;;;;;;;4993441;28;20422;-42
2023/02/15 13:54:33;;;;;;;10.53;7.23;;;;;;;;;;4993381;28;20495;-42
2023/02/15 13:57:20;;;;;;;13.30;7.20;;;;;;;;;;4994909;28;20844;-45
2023/02/15 14:00:04;;;;;;;13.37;7.47;;;;;;;;;;4993412;28;20467;-45
2023/02/15 14:02:49;;;;;;;12.93;7.87;;;;;;;;;;4992304;28;20467;-45
2023/02/15 14:05:30;;;;;;;11.73;7.40;;;;;;;;;;4990404;28;20785;-45
2023/02/15 14:08:09;;;;;;;11.27;6.87;;;;;;;;;;4993174;28;20420;-45
2023/02/15 14:10:45;;;;;;;11.60;7.60;;;;;;;;;;4993160;28;20532;-45
2023/02/15 14:13:11;;;;;;;10.03;7.47;;;;;;;;;;4993325;28;20503;-45
2023/02/15 14:15:55;;;;;;;13.67;8.30;;;;;;;;;;4992466;28;20901;-45
2023/02/15 14:18:40;;;;;;;15.63;8.00;;;;;;;;;;4986135;28;20199;-45
2023/02/15 14:21:06;;;;;;;13.80;8.50;;;;;;;;;;4993270;28;20416;-45
2023/02/15 14:23:42;;;;;;;12.83;7.90;;;;;;;;;;4993242;28;20534;-45
2023/02/15 14:26:11;;;;;;;11.43;7.63;;;;;;;;;;4992809;28;20427;-46
2023/02/15 14:28:40;;;;;;;17.13;8.40;;;;;;;;;;4992711;28;20821;-46
2023/02/15 14:31:08;;;;;;;11.13;6.83;;;;;;;;;;4992467;28;20463;-45
2023/02/15 14:33:37;;;;;;;13.10;8.03;;;;;;;;;;4987839;28;20412;-45
2023/02/15 14:36:05;;;;;;;12.43;8.30;;;;;;;;;;4991961;28;20430;-45
2023/02/15 14:38:34;;;;;;;11.27;8.07;;;;;;;;;;4990580;28;20832;-45
2023/02/15 14:41:10;;;;;;;13.00;8.90;;;;;;;;;;4991257;28;20966;-44
2023/02/15 14:43:54;;;;;;;12.57;8.40;;;;;;;;;;4992263;28;20462;-45
2023/02/15 14:46:26;;;;;;;13.63;7.47;;;;;;;;;;4991350;28;20428;-45
2023/02/15 14:48:54;;;;;;;15.57;8.93;;;;;;;;;;4991953;28;20853;-44
2023/02/15 14:51:38;;;;;;;13.97;7.50;;;;;;;;;;4990663;28;20463;-44
2023/02/15 14:54:04;;;;;;;13.80;8.40;;;;;;;;;;4991857;28;20422;-45
2023/02/15 14:56:30;;;;;;;12.07;8.13;;;;;;;;;;5005922;28;20799;-45
2023/02/15 14:58:57;;;;;;;13.53;8.53;;;;;;;;;;4992273;28;20755;-44
2023/02/15 15:01:28;;;;;;;13.80;8.10;;;;;;;;;;4992307;28;20833;-46
2023/02/15 15:03:56;;;;;;;11.70;7.63;;;;;;;;;;4991508;28;20420;-44